Agnes — WDH9915 — position and weather

sailwx.info

Track history (hours):
 
Tides and Currents Weather Stations Pressure Air Temp Water Temp Dewpoint Dewpoint Depression Visibility Wind Speed Wind Dir Waves Ship Positions

Agnes

Owner: VINIK MARINE SERVICES, LLC, KEYPORT, NJ. More information available from US FCC via Universal Licensing System and Coast Guard Vessel Documentation Center.

Last reported at 2018-Apr-06 06:07 UTC. Time now 2018-Jun-19 04:45 UTC.
Position N 40°32' W 074°05'.
Warning: this ship's position is months out of date.

Length 18 m; draft 3 m.

Type: Tug. MMSI: 367672850.

Date/timePositionNaut miles runAvg speedWind from/ knotsBaromVisibWave heightAir tempDewpointWater temp
2018-Apr-06 06:07N 40°32' W 074°05'1 7.5
2018-Apr-06 06:00N 40°32' W 074°04'4 7.3
2018-Apr-06 05:30N 40°34' W 074°00'4 7.6
2018-Apr-06 04:59N 40°34' W 073°55'4 7.5
2018-Apr-06 04:30N 40°35' W 073°51'5 3.5
2018-Apr-06 03:13N 40°38' W 073°46'3 7.4
2018-Apr-06 02:50N 40°36' W 073°49'  
2018-Apr-02 19:13N 40°34' W 074°13'2 8.4
2018-Apr-02 18:58N 40°36' W 074°12'  
2018-Mar-31 12:13N 40°31' W 074°07'2 8.6
2018-Mar-31 12:00N 40°32' W 074°05'4 8.1
2018-Mar-31 11:30N 40°34' W 073°60'4 7.5
2018-Mar-31 11:00N 40°34' W 073°55'3 5.2
2018-Mar-31 10:29N 40°34' W 073°59'3 6.6
2018-Mar-31 10:00N 40°33' W 074°03'2 0.0
2018-Mar-29 16:45N 40°32' W 074°05'2 7.5
2018-Mar-29 16:31N 40°33' W 074°03'5 7.0
2018-Mar-29 15:50N 40°34' W 073°57'3 8.9
2018-Mar-29 15:29N 40°35' W 073°53'2 2.9
2018-Mar-29 14:56N 40°35' W 073°51'1 1.8
2018-Mar-29 14:21N 40°35' W 073°49'0 0.3
2018-Mar-29 13:59N 40°35' W 073°49'1 2.5
2018-Mar-29 13:30N 40°35' W 073°51'3 4.9
2018-Mar-29 12:59N 40°34' W 073°54'3 3.5
2018-Mar-29 12:12N 40°34' W 073°57'0 1.5
2018-Mar-29 12:01N 40°34' W 073°58'1 1.9
2018-Mar-29 11:30N 40°34' W 073°59'2 3.0
2018-Mar-29 11:00N 40°34' W 074°01'  
Track history (hours):
 
Tides and Currents Weather Stations Pressure Air Temp Water Temp Dewpoint Dewpoint Depression Visibility Wind Speed Wind Dir Waves Ship Positions

Agnes

Owner: VINIK MARINE SERVICES, LLC, KEYPORT, NJ. More information available from US FCC via Universal Licensing System and Coast Guard Vessel Documentation Center.

Last reported at 2018-Apr-06 06:07 UTC. Time now 2018-Jun-19 04:45 UTC.
Position N 40°32' W 074°05'.
Warning: this ship's position is months out of date.

Length 18 m; draft 3 m.

Type: Tug. MMSI: 367672850.

Date/timePositionNaut miles runAvg speedWind from/ knotsBaromVisibWave heightAir tempDewpointWater temp
2018-Apr-06 06:07N 40°32' W 074°05'1 7.5
2018-Apr-06 06:00N 40°32' W 074°04'4 7.3
2018-Apr-06 05:30N 40°34' W 074°00'4 7.6
2018-Apr-06 04:59N 40°34' W 073°55'4 7.5
2018-Apr-06 04:30N 40°35' W 073°51'5 3.5
2018-Apr-06 03:13N 40°38' W 073°46'3 7.4
2018-Apr-06 02:50N 40°36' W 073°49'  
2018-Apr-02 19:13N 40°34' W 074°13'2 8.4
2018-Apr-02 18:58N 40°36' W 074°12'  
2018-Mar-31 12:13N 40°31' W 074°07'2 8.6
2018-Mar-31 12:00N 40°32' W 074°05'4 8.1
2018-Mar-31 11:30N 40°34' W 073°60'4 7.5
2018-Mar-31 11:00N 40°34' W 073°55'3 5.2
2018-Mar-31 10:29N 40°34' W 073°59'3 6.6
2018-Mar-31 10:00N 40°33' W 074°03'2 0.0
2018-Mar-29 16:45N 40°32' W 074°05'2 7.5
2018-Mar-29 16:31N 40°33' W 074°03'5 7.0
2018-Mar-29 15:50N 40°34' W 073°57'3 8.9
2018-Mar-29 15:29N 40°35' W 073°53'2 2.9
2018-Mar-29 14:56N 40°35' W 073°51'1 1.8
2018-Mar-29 14:21N 40°35' W 073°49'0 0.3
2018-Mar-29 13:59N 40°35' W 073°49'1 2.5
2018-Mar-29 13:30N 40°35' W 073°51'3 4.9
2018-Mar-29 12:59N 40°34' W 073°54'3 3.5
2018-Mar-29 12:12N 40°34' W 073°57'0 1.5
2018-Mar-29 12:01N 40°34' W 073°58'1 1.9
2018-Mar-29 11:30N 40°34' W 073°59'2 3.0
2018-Mar-29 11:00N 40°34' W 074°01'  

Dump ship's entire track history